createdAt,value
2019-04-04T00:01:39.685Z,51.84
2019-04-04T00:05:45.375Z,52.92
2019-04-04T00:09:51.062Z,52.69
2019-04-04T00:13:56.766Z,53.38
2019-04-04T00:18:02.561Z,52.56
2019-04-04T00:22:08.244Z,52.31
2019-04-04T00:26:13.937Z,51.08
2019-04-04T00:30:19.690Z,51.54
2019-04-04T00:34:27.761Z,53.31
2019-04-04T00:38:32.885Z,53.94
2019-04-04T00:42:39.637Z,52.00
2019-04-04T00:46:45.328Z,52.07
2019-04-04T00:50:51.089Z,51.98
2019-04-04T00:54:56.763Z,51.74
2019-04-04T00:59:06.541Z,51.99
2019-04-04T01:03:12.225Z,52.19
2019-04-04T01:07:17.922Z,53.04
2019-04-04T01:11:23.624Z,53.26
2019-04-04T01:15:31.152Z,53.35
2019-04-04T01:19:36.894Z,52.84
2019-04-04T01:23:42.574Z,52.02
2019-04-04T01:27:48.333Z,52.02
2019-04-04T01:31:54.087Z,50.55
2019-04-04T01:36:00.730Z,51.21
2019-04-04T01:40:08.345Z,50.93
2019-04-04T01:44:14.026Z,51.58
2019-04-04T01:48:19.712Z,51.58
2019-04-04T01:52:27.909Z,53.10
2019-04-04T01:56:33.115Z,53.96
2019-04-04T02:00:38.921Z,54.50
2019-04-04T02:04:44.685Z,54.11
2019-04-04T02:08:50.421Z,54.11
2019-04-04T02:12:57.223Z,55.87
2019-04-04T02:17:02.904Z,51.58
2019-04-04T02:21:08.600Z,51.80
2019-04-04T02:25:14.618Z,54.01
2019-04-04T02:29:20.343Z,51.14
2019-04-04T02:33:26.039Z,53.58
2019-04-04T02:37:31.733Z,52.06
2019-04-04T02:41:37.959Z,53.41
2019-04-04T02:45:43.655Z,53.01
2019-04-04T02:49:49.345Z,51.62
2019-04-04T02:53:55.042Z,50.65
2019-04-04T02:58:00.818Z,51.31
2019-04-04T03:02:06.559Z,54.54
2019-04-04T03:06:12.424Z,51.78
2019-04-04T03:10:18.189Z,51.73
2019-04-04T03:14:23.892Z,53.05
2019-04-04T03:18:29.571Z,51.43
2019-04-04T03:22:35.224Z,53.92
2019-04-04T03:26:40.944Z,51.39
2019-04-04T03:30:52.813Z,55.49
2019-04-04T03:34:54.086Z,54.17
2019-04-04T03:38:59.800Z,54.39
2019-04-04T03:43:05.588Z,51.14
2019-04-04T03:47:11.430Z,51.57
2019-04-04T03:51:17.144Z,52.10
2019-04-04T03:55:23.012Z,53.64
2019-04-04T03:59:29.592Z,50.58
2019-04-04T04:03:36.077Z,52.21
2019-04-04T04:07:41.838Z,52.30
2019-04-04T04:11:47.531Z,51.06
2019-04-04T04:15:53.243Z,53.55
2019-04-04T04:20:03.406Z,54.43
2019-04-04T04:24:06.313Z,53.20
2019-04-04T04:28:12.446Z,53.56
2019-04-04T04:32:21.374Z,52.19
2019-04-04T04:36:25.569Z,53.45
2019-04-04T04:40:31.250Z,53.28
2019-04-04T04:44:38.720Z,51.79
2019-04-04T04:48:44.598Z,51.39
2019-04-04T04:52:50.286Z,56.48
2019-04-04T04:56:55.996Z,52.79
2019-04-04T05:01:01.815Z,52.19
2019-04-04T05:05:09.186Z,53.15
2019-04-04T05:09:14.884Z,53.79
2019-04-04T05:13:20.561Z,52.48
2019-04-04T05:17:26.249Z,56.15
2019-04-04T05:21:33.846Z,51.12
2019-04-04T05:25:51.664Z,51.46
2019-04-04T05:29:46.823Z,52.05
2019-04-04T05:33:52.509Z,55.25
2019-04-04T05:37:58.185Z,55.09
2019-04-04T05:42:04.044Z,55.13
2019-04-04T05:46:09.799Z,52.51
2019-04-04T05:50:16.532Z,54.75
2019-04-04T05:54:22.281Z,53.37
2019-04-04T05:58:28.927Z,52.36
2019-04-04T06:02:34.719Z,52.67
2019-04-04T06:06:40.462Z,54.10
2019-04-04T06:10:46.121Z,56.46
2019-04-04T06:14:51.813Z,57.06
2019-04-04T06:18:57.480Z,53.77
2019-04-04T06:23:03.189Z,56.82
2019-04-04T06:27:09.121Z,57.00
2019-04-04T06:31:15.556Z,53.44
2019-04-04T06:35:21.359Z,55.90
2019-04-04T06:39:27.032Z,56.86
2019-04-04T06:43:32.790Z,54.37
2019-04-04T06:47:38.498Z,53.62
2019-04-04T06:51:46.345Z,55.68
2019-04-04T06:55:51.667Z,56.31
2019-04-04T06:59:57.339Z,56.78
2019-04-04T07:04:03.168Z,53.58
2019-04-04T07:08:08.951Z,56.10
2019-04-04T07:12:21.905Z,54.31
2019-04-04T07:16:22.011Z,55.24
2019-04-04T07:20:28.566Z,58.00
2019-04-04T07:24:34.366Z,54.96
2019-04-04T07:28:40.049Z,54.17
2019-04-04T07:32:45.743Z,56.48
2019-04-04T07:36:51.890Z,52.82
2019-04-04T07:40:57.656Z,53.48
2019-04-04T07:45:04.995Z,54.85
2019-04-04T07:49:10.684Z,55.57
2019-04-04T07:53:16.446Z,54.66
2019-04-04T07:57:22.120Z,53.25
2019-04-04T08:01:27.825Z,54.88
2019-04-04T08:05:33.652Z,54.24
2019-04-04T08:09:39.358Z,53.19
2019-04-04T08:13:45.121Z,53.12
2019-04-04T08:17:50.827Z,53.52
2019-04-04T08:21:56.587Z,56.75
2019-04-04T08:26:02.305Z,54.22
2019-04-04T08:30:09.248Z,52.97
2019-04-04T08:34:14.942Z,56.06
2019-04-04T08:38:20.655Z,53.71
2019-04-04T08:42:26.450Z,54.86
2019-04-04T08:46:32.165Z,56.45
2019-04-04T08:50:37.864Z,56.72
2019-04-04T08:54:43.705Z,55.12
2019-04-04T08:58:51.636Z,53.93
2019-04-04T09:02:56.775Z,55.06
2019-04-04T09:07:02.540Z,55.06
2019-04-04T09:11:08.335Z,53.91
2019-04-04T09:15:14.738Z,53.38
2019-04-04T09:19:20.411Z,53.78
2019-04-04T09:23:26.120Z,54.62
2019-04-04T09:27:31.810Z,53.15
2019-04-04T09:31:37.511Z,54.03
2019-04-04T09:36:19.121Z,53.75
2019-04-04T09:40:24.807Z,53.13
2019-04-04T09:44:30.508Z,53.89
2019-04-04T09:48:36.216Z,55.31
2019-04-04T09:52:41.905Z,54.08
2019-04-04T09:56:47.692Z,54.28
2019-04-04T10:05:47.334Z,54.06
2019-04-04T10:09:53.284Z,56.52
2019-04-04T10:13:58.973Z,54.16
2019-04-04T10:18:04.820Z,55.93
2019-04-04T10:22:10.561Z,55.33
2019-04-04T10:26:16.202Z,55.48
2019-04-04T10:30:22.118Z,54.61
2019-04-04T10:34:28.422Z,56.15
2019-04-04T10:38:34.293Z,54.42
2019-04-04T10:42:40.140Z,54.94
2019-04-04T10:46:45.802Z,57.31
2019-04-04T10:50:51.499Z,56.67
2019-04-04T10:54:57.352Z,58.29
2019-04-04T10:59:03.033Z,55.34
2019-04-04T11:03:08.738Z,54.08
2019-04-04T11:07:14.479Z,54.37
2019-04-04T11:11:20.192Z,56.31
2019-04-04T11:15:25.897Z,54.41
2019-04-04T11:19:31.704Z,56.18
2019-04-04T11:23:37.450Z,53.58
2019-04-04T11:27:43.130Z,53.89
2019-04-04T11:31:48.924Z,55.24
2019-04-04T11:35:54.631Z,54.28
2019-04-04T11:40:00.325Z,54.15
2019-04-04T11:44:06.052Z,54.83
2019-04-04T11:48:11.744Z,54.55
2019-04-04T11:52:17.432Z,54.14
2019-04-04T11:56:23.134Z,51.12
2019-04-04T12:00:30.553Z,51.88
2019-04-04T12:04:36.245Z,51.99
2019-04-04T12:08:41.949Z,51.40
2019-04-04T12:12:47.649Z,51.54
2019-04-04T12:16:53.351Z,52.49
2019-04-04T12:21:00.016Z,52.39
2019-04-04T12:25:07.616Z,50.80
2019-04-04T12:29:13.290Z,53.11
2019-04-04T12:33:19.958Z,50.85
2019-04-04T12:37:25.713Z,53.94
2019-04-04T12:41:31.462Z,52.12
2019-04-04T12:45:37.269Z,52.40
2019-04-04T12:49:42.966Z,54.43
2019-04-04T12:53:48.710Z,52.51
2019-04-04T12:57:54.424Z,53.08
2019-04-04T13:02:00.543Z,50.01
2019-04-04T13:06:06.218Z,51.36
2019-04-04T13:10:12.584Z,51.94
2019-04-04T13:14:18.268Z,51.30
2019-04-04T13:18:23.954Z,50.66
2019-04-04T13:22:29.661Z,50.30
2019-04-04T13:26:35.322Z,52.73
2019-04-04T13:30:41.015Z,55.56
2019-04-04T13:34:58.303Z,52.83
2019-04-04T13:38:55.233Z,53.60
2019-04-04T13:43:01.072Z,54.39
2019-04-04T13:47:06.846Z,52.73
2019-04-04T13:51:12.544Z,52.61
2019-04-04T13:55:18.428Z,51.49
2019-04-04T13:59:24.122Z,50.53
2019-04-04T14:03:29.810Z,52.32
2019-04-04T14:07:35.551Z,50.01
2019-04-04T14:11:42.130Z,50.20
2019-04-04T14:15:47.926Z,51.64
2019-04-04T14:19:53.714Z,50.61
2019-04-04T14:24:12.128Z,51.58
2019-04-04T14:28:06.871Z,49.99
2019-04-04T14:32:12.639Z,51.97
2019-04-04T14:36:18.386Z,50.96
2019-04-04T14:40:24.105Z,50.17
2019-04-04T14:44:30.193Z,49.50
2019-04-04T14:48:36.617Z,49.32
2019-04-04T14:52:42.386Z,50.42
2019-04-04T14:56:48.108Z,50.77
2019-04-04T15:00:53.793Z,52.49
2019-04-04T15:04:59.476Z,51.53
2019-04-04T15:09:09.082Z,48.51
2019-04-04T15:13:14.859Z,49.33
2019-04-04T15:17:20.729Z,51.24
2019-04-04T15:21:26.447Z,51.90
2019-04-04T15:25:32.111Z,51.57
2019-04-04T15:29:37.803Z,50.21
2019-04-04T15:33:43.572Z,49.73
2019-04-04T15:37:49.280Z,50.09
2019-04-04T15:41:54.972Z,49.20
2019-04-04T15:46:00.729Z,47.75
2019-04-04T15:50:08.611Z,48.86
2019-04-04T15:54:14.431Z,49.81
2019-04-04T15:58:20.129Z,49.21
2019-04-04T16:02:25.801Z,49.97
2019-04-04T16:06:31.622Z,49.64
2019-04-04T16:10:37.382Z,48.94
2019-04-04T16:14:43.145Z,50.02
2019-04-04T16:18:49.981Z,48.46
2019-04-04T16:22:55.690Z,48.67
2019-04-04T16:27:01.480Z,47.76
2019-04-04T16:31:07.312Z,48.21
2019-04-04T16:35:13.209Z,48.91
2019-04-04T16:39:18.988Z,49.00
2019-04-04T16:43:24.784Z,49.21
2019-04-04T16:47:30.488Z,49.36
2019-04-04T16:51:36.732Z,51.45
2019-04-04T16:55:42.601Z,49.30
2019-04-04T16:59:48.369Z,49.66
2019-04-04T17:04:01.561Z,51.04
2019-04-04T17:08:01.580Z,50.91
2019-04-04T17:12:14.935Z,51.17
2019-04-04T17:16:17.471Z,52.34
2019-04-04T17:20:23.236Z,51.67
2019-04-04T17:24:28.920Z,52.19
2019-04-04T17:28:35.220Z,51.42
2019-04-04T17:33:07.187Z,50.09
2019-04-04T17:37:13.467Z,52.20
2019-04-04T17:41:19.174Z,50.81
2019-04-04T17:45:25.737Z,51.13
2019-04-04T17:49:31.757Z,51.80
2019-04-04T17:53:37.562Z,52.27
2019-04-04T17:57:43.517Z,51.15
2019-04-04T18:01:49.222Z,50.36
2019-04-04T18:05:54.999Z,50.81
2019-04-04T18:10:01.371Z,51.63
2019-04-04T18:14:07.615Z,50.49
2019-04-04T18:18:13.298Z,52.22
2019-04-04T18:22:20.790Z,53.02
2019-04-04T18:26:26.547Z,52.96
2019-04-04T18:30:32.253Z,53.21
2019-04-04T18:34:38.181Z,53.94
2019-04-04T18:38:43.842Z,56.30
2019-04-04T18:42:53.527Z,53.43
2019-04-04T18:46:56.957Z,52.15
2019-04-04T18:51:02.657Z,52.88
2019-04-04T18:55:19.128Z,53.69
2019-04-04T18:59:16.737Z,55.36
2019-04-04T19:03:22.520Z,54.20
2019-04-04T19:07:38.779Z,55.17
2019-04-04T19:11:35.722Z,54.79
2019-04-04T19:15:41.509Z,54.84
2019-04-04T19:19:47.284Z,54.66
2019-04-04T19:23:53.027Z,56.36
2019-04-04T19:27:58.909Z,57.10
2019-04-04T19:32:05.082Z,57.34
2019-04-04T19:36:10.868Z,53.62
2019-04-04T19:40:17.339Z,55.42
2019-04-04T19:44:23.095Z,55.98
2019-04-04T19:48:28.773Z,56.43
2019-04-04T19:52:34.502Z,54.45
2019-04-04T19:56:40.360Z,55.77
2019-04-04T20:00:46.173Z,56.06
2019-04-04T20:04:51.866Z,56.28
2019-04-04T20:08:57.576Z,54.32
2019-04-04T20:13:03.278Z,54.35
2019-04-04T20:17:09.151Z,55.09
2019-04-04T20:21:17.864Z,54.23
2019-04-04T20:26:17.590Z,53.38
2019-04-04T20:30:38.986Z,54.30
2019-04-04T20:35:17.628Z,55.88
2019-04-04T20:39:23.308Z,56.70
2019-04-04T20:44:18.669Z,56.22
2019-04-04T20:48:24.368Z,56.47
2019-04-04T20:52:30.049Z,54.46
2019-04-04T20:56:35.746Z,55.57
2019-04-04T21:00:41.433Z,53.49
2019-04-04T21:04:47.178Z,54.94
2019-04-04T21:08:52.871Z,55.79
2019-04-04T21:12:58.696Z,56.73
2019-04-04T21:17:04.441Z,53.89
2019-04-04T21:21:10.140Z,55.15
2019-04-04T21:25:16.031Z,54.70
2019-04-04T21:29:21.713Z,54.41
2019-04-04T21:33:27.386Z,54.17
2019-04-04T21:37:33.204Z,55.76
2019-04-04T21:41:38.892Z,52.37
2019-04-04T21:45:44.595Z,54.03
2019-04-04T21:49:50.418Z,53.59
2019-04-04T21:53:56.105Z,52.77
2019-04-04T21:58:01.807Z,57.68
2019-04-04T22:02:07.827Z,53.54
2019-04-04T22:06:13.530Z,52.83
2019-04-04T22:10:19.281Z,53.08
2019-04-04T22:14:25.039Z,53.82
2019-04-04T22:18:30.694Z,55.14
2019-04-04T22:22:36.485Z,54.47
2019-04-04T22:26:42.227Z,54.94
2019-04-04T22:30:47.932Z,54.89
2019-04-04T22:34:53.662Z,54.98
2019-04-04T22:38:59.491Z,55.28
2019-04-04T22:43:05.265Z,54.78
2019-04-04T22:47:10.988Z,55.38
2019-04-04T22:51:16.736Z,56.34
2019-04-04T22:55:22.445Z,56.48
2019-04-04T22:59:28.074Z,55.13
2019-04-04T23:03:34.129Z,54.48
2019-04-04T23:07:39.804Z,54.90
2019-04-04T23:11:45.509Z,53.23
2019-04-04T23:15:51.179Z,54.52
2019-04-04T23:19:56.859Z,53.83
2019-04-04T23:24:02.543Z,53.67
2019-04-04T23:28:08.365Z,53.78
2019-04-04T23:32:14.057Z,51.15
2019-04-04T23:36:19.730Z,51.39
2019-04-04T23:40:25.499Z,53.24
2019-04-04T23:44:31.260Z,53.16
2019-04-04T23:48:36.941Z,52.73
2019-04-04T23:52:42.725Z,53.74
2019-04-04T23:56:48.414Z,54.21
